Kerteminde, Denmark
Current Conditions -  °F | °C
As of 9:50 AM on Friday 31 Oct 2014 (Local Time) from EKOD Reporting Station
Haze Haze  
Wind Chill: 46°   Ceiling: 500
Heat Index: 48°   Visibility: 1mi
Dew Point: 48°   Wind: 6mph
Humidity: 100%   Direction: 160°SSE
Pressure: 30.18"   Gusts: NA
Location:  55.45°N, 10.66°E
Report Text: EKOD 310850Z 16005KT 1600 BR VV005 09/09 Q1022
Loading
Personal Weather Stations






























Interactive Weather Map
Tropical Storm Tracking
New forecast layout! Learn more

10-Day Weather Forecast

Advertisements
Track Severe Weather on mobile